DAL8688 KLAX-MMUN
Flight info
| Callsign | DAL8688 |
|---|---|
| Flight time | N/A |
| Altitude | 41000 |
| Route | PNDAH2 TCATE DCT ASUTA UT41 CUU UJ2 MAM UT22 VESKO UT11 URTEL UT34 VOMAR VOMAR1A |
| Aircraft | A359/H-SDE2E3GHIJ3J4J5LM1ORWXY/LB1D1 |
Departure
| Time | N/A |
|---|---|
| Airport | Los Angeles International Airport (KLAX) |
Arrival
| Time | 2026-05-04 04:29 |
|---|---|
| Airport | Cancún International Airport (MMUN) |
| Time | Latitude | Longitude | Altitude | Speed | Heading |
|---|---|---|---|---|---|
| 2026-05-04 01:08 | 32.80565 | -116.46879 | 39116 ft | 586 kts | 111° |
| 2026-05-04 01:08 | 32.79587 | -116.42202 | 39513 ft | 581 kts | 108° |
| 2026-05-04 01:08 | 32.78716 | -116.37585 | 39842 ft | 579 kts | 107° |
| 2026-05-04 01:09 | 32.77874 | -116.32912 | 39916 ft | 579 kts | 107° |
| 2026-05-04 01:09 | 32.76206 | -116.23561 | 39922 ft | 577 kts | 108° |
| 2026-05-04 01:10 | 32.74505 | -116.14241 | 39916 ft | 580 kts | 108° |
| 2026-05-04 01:10 | 32.72745 | -116.04861 | 39867 ft | 583 kts | 108° |
| 2026-05-04 01:11 | 32.70983 | -115.95462 | 39834 ft | 583 kts | 108° |
| 2026-05-04 01:11 | 32.69221 | -115.86069 | 39789 ft | 583 kts | 107° |
| 2026-05-04 01:12 | 32.67458 | -115.76736 | 39793 ft | 582 kts | 108° |
| 2026-05-04 01:12 | 32.65535 | -115.67444 | 39788 ft | 575 kts | 115° |
| 2026-05-04 01:12 | 32.63951 | -115.63128 | 39742 ft | 563 kts | 127° |
| 2026-05-04 01:13 | 32.62023 | -115.59111 | 39764 ft | 559 kts | 128° |
| 2026-05-04 01:13 | 32.57960 | -115.51327 | 39750 ft | 557 kts | 130° |
| 2026-05-04 01:14 | 32.53786 | -115.43599 | 39740 ft | 556 kts | 131° |
| 2026-05-04 01:14 | 32.49616 | -115.35859 | 39749 ft | 557 kts | 130° |
| 2026-05-04 01:15 | 32.45468 | -115.28120 | 39744 ft | 557 kts | 130° |
| 2026-05-04 01:15 | 32.41320 | -115.20374 | 39747 ft | 556 kts | 130° |
| 2026-05-04 01:16 | 32.37198 | -115.12692 | 39753 ft | 556 kts | 130° |
| 2026-05-04 01:16 | 32.33311 | -115.04746 | 39760 ft | 565 kts | 120° |
| 2026-05-04 01:17 | 32.30145 | -114.96199 | 39764 ft | 568 kts | 118° |
| 2026-05-04 01:17 | 32.27107 | -114.87565 | 39762 ft | 570 kts | 118° |
| 2026-05-04 01:18 | 32.24086 | -114.78960 | 39767 ft | 570 kts | 118° |
| 2026-05-04 01:18 | 32.21022 | -114.70315 | 39777 ft | 570 kts | 118° |
| 2026-05-04 01:19 | 32.17944 | -114.61688 | 39785 ft | 570 kts | 118° |
| 2026-05-04 01:19 | 32.14878 | -114.53124 | 39786 ft | 570 kts | 118° |
| 2026-05-04 01:20 | 32.11783 | -114.44497 | 39788 ft | 570 kts | 118° |
| 2026-05-04 01:20 | 32.08688 | -114.35892 | 39808 ft | 570 kts | 118° |
| 2026-05-04 01:21 | 32.05575 | -114.27258 | 39794 ft | 572 kts | 118° |
| 2026-05-04 01:21 | 32.02475 | -114.18683 | 39809 ft | 572 kts | 118° |
| 2026-05-04 01:22 | 31.99349 | -114.10056 | 39813 ft | 572 kts | 118° |
| 2026-05-04 01:22 | 31.96221 | -114.01445 | 39813 ft | 572 kts | 118° |
| 2026-05-04 01:23 | 31.93103 | -113.92883 | 39817 ft | 572 kts | 118° |
| 2026-05-04 01:23 | 31.89956 | -113.84270 | 39825 ft | 572 kts | 118° |
| 2026-05-04 01:24 | 31.86810 | -113.75673 | 39817 ft | 572 kts | 118° |
| 2026-05-04 01:24 | 31.83654 | -113.67069 | 39833 ft | 572 kts | 118° |
| 2026-05-04 01:25 | 31.80496 | -113.58485 | 39835 ft | 572 kts | 118° |
| 2026-05-04 01:25 | 31.77352 | -113.49959 | 39839 ft | 572 kts | 118° |
| 2026-05-04 01:26 | 31.74192 | -113.41386 | 39851 ft | 570 kts | 118° |
| 2026-05-04 01:26 | 31.71031 | -113.32866 | 39845 ft | 572 kts | 118° |
| 2026-05-04 01:27 | 31.67857 | -113.24342 | 39849 ft | 572 kts | 118° |
| 2026-05-04 01:27 | 31.64666 | -113.15782 | 39854 ft | 572 kts | 118° |
| 2026-05-04 01:28 | 31.61476 | -113.07227 | 39852 ft | 571 kts | 118° |
| 2026-05-04 01:28 | 31.58277 | -112.98679 | 39856 ft | 572 kts | 118° |
| 2026-05-04 01:29 | 31.55064 | -112.90127 | 39863 ft | 573 kts | 118° |
| 2026-05-04 01:29 | 31.51871 | -112.81647 | 39868 ft | 572 kts | 118° |
| 2026-05-04 01:30 | 31.48653 | -112.73113 | 39871 ft | 572 kts | 118° |
| 2026-05-04 01:30 | 31.45432 | -112.64589 | 39873 ft | 572 kts | 118° |
| 2026-05-04 01:31 | 31.42209 | -112.56083 | 39867 ft | 572 kts | 118° |
| 2026-05-04 01:31 | 31.38971 | -112.47559 | 39870 ft | 572 kts | 118° |
| 2026-05-04 01:32 | 31.35749 | -112.39097 | 39867 ft | 572 kts | 118° |
| 2026-05-04 01:32 | 31.32525 | -112.30649 | 39870 ft | 573 kts | 118° |
| 2026-05-04 01:33 | 31.29251 | -112.22096 | 39870 ft | 573 kts | 118° |
| 2026-05-04 01:33 | 31.25989 | -112.13590 | 39872 ft | 573 kts | 118° |
| 2026-05-04 01:34 | 31.22720 | -112.05089 | 39871 ft | 573 kts | 118° |
| 2026-05-04 01:34 | 31.19471 | -111.96658 | 39863 ft | 573 kts | 118° |
| 2026-05-04 01:35 | 31.16196 | -111.88181 | 39870 ft | 572 kts | 118° |
| 2026-05-04 01:35 | 31.12920 | -111.79726 | 39869 ft | 571 kts | 118° |
| 2026-05-04 01:36 | 31.09640 | -111.71273 | 39864 ft | 572 kts | 118° |
| 2026-05-04 01:36 | 31.06352 | -111.62822 | 39862 ft | 572 kts | 118° |
| 2026-05-04 01:37 | 31.03074 | -111.54430 | 39864 ft | 573 kts | 118° |
| 2026-05-04 01:37 | 30.99773 | -111.45987 | 39860 ft | 571 kts | 118° |
| 2026-05-04 01:38 | 30.96482 | -111.37577 | 39865 ft | 570 kts | 118° |
| 2026-05-04 01:38 | 30.93181 | -111.29169 | 39864 ft | 570 kts | 118° |
| 2026-05-04 01:39 | 30.89920 | -111.20821 | 39871 ft | 570 kts | 117° |
| 2026-05-04 01:39 | 30.86667 | -111.12386 | 39876 ft | 570 kts | 117° |
| 2026-05-04 01:40 | 30.83410 | -111.03959 | 39868 ft | 570 kts | 117° |
| 2026-05-04 01:40 | 30.80164 | -110.95600 | 39876 ft | 571 kts | 116° |
| 2026-05-04 01:41 | 30.76881 | -110.87189 | 39887 ft | 571 kts | 117° |
| 2026-05-04 01:41 | 30.73590 | -110.78793 | 39897 ft | 571 kts | 117° |
| 2026-05-04 01:42 | 30.70294 | -110.70415 | 39903 ft | 570 kts | 117° |
| 2026-05-04 01:42 | 30.67548 | -110.63446 | 39902 ft | 570 kts | 117° |
| 2026-05-04 01:43 | 30.63718 | -110.53711 | 39907 ft | 570 kts | 117° |
| 2026-05-04 01:43 | 30.60421 | -110.45348 | 39914 ft | 569 kts | 117° |
| 2026-05-04 01:44 | 30.57678 | -110.38414 | 39908 ft | 569 kts | 117° |
| 2026-05-04 01:44 | 30.54368 | -110.30065 | 39912 ft | 569 kts | 117° |
| 2026-05-04 01:45 | 30.51053 | -110.21726 | 39917 ft | 570 kts | 117° |
| 2026-05-04 01:45 | 30.46090 | -110.09272 | 39913 ft | 569 kts | 117° |
| 2026-05-04 01:46 | 30.42766 | -110.00950 | 39905 ft | 568 kts | 117° |
| 2026-05-04 01:46 | 30.39439 | -109.92657 | 39912 ft | 568 kts | 117° |
| 2026-05-04 01:47 | 30.36104 | -109.84363 | 39904 ft | 568 kts | 117° |
| 2026-05-04 01:47 | 30.32789 | -109.76129 | 39905 ft | 568 kts | 117° |
| 2026-05-04 01:48 | 30.29449 | -109.67841 | 39923 ft | 569 kts | 117° |
| 2026-05-04 01:48 | 30.26095 | -109.59539 | 39903 ft | 568 kts | 117° |
| 2026-05-04 01:49 | 30.22755 | -109.51297 | 39901 ft | 566 kts | 117° |
| 2026-05-04 01:49 | 30.19409 | -109.43056 | 39908 ft | 565 kts | 117° |
| 2026-05-04 01:50 | 30.16084 | -109.34893 | 39914 ft | 565 kts | 117° |
| 2026-05-04 01:50 | 30.12736 | -109.26682 | 39908 ft | 565 kts | 117° |
| 2026-05-04 01:51 | 30.09382 | -109.18471 | 39925 ft | 565 kts | 117° |
| 2026-05-04 01:51 | 30.06030 | -109.10275 | 39936 ft | 564 kts | 117° |
| 2026-05-04 01:52 | 30.02687 | -109.02097 | 39944 ft | 562 kts | 117° |
| 2026-05-04 01:52 | 29.99338 | -108.93939 | 39977 ft | 562 kts | 117° |
| 2026-05-04 01:53 | 29.96007 | -108.85858 | 39972 ft | 562 kts | 117° |
| 2026-05-04 01:53 | 29.92647 | -108.77726 | 39995 ft | 562 kts | 117° |
| 2026-05-04 01:54 | 29.89278 | -108.69592 | 40020 ft | 562 kts | 117° |
| 2026-05-04 01:54 | 29.85913 | -108.61485 | 40024 ft | 561 kts | 117° |
| 2026-05-04 01:55 | 29.82550 | -108.53395 | 40042 ft | 559 kts | 117° |
| 2026-05-04 01:55 | 29.79189 | -108.45320 | 40037 ft | 559 kts | 117° |
| 2026-05-04 01:56 | 29.75839 | -108.37302 | 40051 ft | 559 kts | 117° |
| 2026-05-04 01:56 | 29.72473 | -108.29265 | 40051 ft | 558 kts | 117° |
| 2026-05-04 01:57 | 29.69095 | -108.21216 | 40054 ft | 558 kts | 117° |
| 2026-05-04 01:57 | 29.65718 | -108.13181 | 40050 ft | 558 kts | 117° |
| 2026-05-04 01:58 | 29.62337 | -108.05156 | 40057 ft | 557 kts | 117° |
| 2026-05-04 01:58 | 29.58959 | -107.97152 | 40051 ft | 556 kts | 117° |
| 2026-05-04 01:59 | 29.55601 | -107.89210 | 40053 ft | 557 kts | 117° |
| 2026-05-04 01:59 | 29.52208 | -107.81205 | 40038 ft | 557 kts | 117° |
| 2026-05-04 02:00 | 29.48810 | -107.73206 | 40044 ft | 557 kts | 117° |
| 2026-05-04 02:00 | 29.45402 | -107.65200 | 40030 ft | 560 kts | 117° |
| 2026-05-04 02:01 | 29.41973 | -107.57157 | 40005 ft | 561 kts | 117° |
| 2026-05-04 02:01 | 29.38536 | -107.49121 | 39987 ft | 561 kts | 117° |
| 2026-05-04 02:02 | 29.35118 | -107.41140 | 39984 ft | 561 kts | 117° |
| 2026-05-04 02:02 | 29.31674 | -107.33113 | 39988 ft | 562 kts | 117° |
| 2026-05-04 02:03 | 29.28224 | -107.25087 | 39963 ft | 562 kts | 117° |
| 2026-05-04 02:03 | 29.24770 | -107.17070 | 39936 ft | 560 kts | 118° |
| 2026-05-04 02:04 | 29.21337 | -107.09128 | 39949 ft | 555 kts | 118° |
| 2026-05-04 02:04 | 29.17935 | -107.01263 | 39949 ft | 554 kts | 118° |
| 2026-05-04 02:05 | 29.14514 | -106.93369 | 39946 ft | 554 kts | 118° |
| 2026-05-04 02:05 | 29.11086 | -106.85480 | 39928 ft | 554 kts | 118° |
| 2026-05-04 02:06 | 29.07654 | -106.77597 | 39938 ft | 554 kts | 118° |
| 2026-05-04 02:06 | 29.04214 | -106.69718 | 39916 ft | 554 kts | 118° |
| 2026-05-04 02:07 | 29.00786 | -106.61878 | 39908 ft | 556 kts | 118° |
| 2026-05-04 02:07 | 28.97322 | -106.53975 | 39908 ft | 556 kts | 118° |
| 2026-05-04 02:08 | 28.93855 | -106.46066 | 39892 ft | 557 kts | 118° |
| 2026-05-04 02:08 | 28.90398 | -106.38206 | 39890 ft | 557 kts | 118° |
| 2026-05-04 02:09 | 28.86920 | -106.30317 | 39874 ft | 557 kts | 118° |
| 2026-05-04 02:09 | 28.83456 | -106.22471 | 39874 ft | 556 kts | 118° |
| 2026-05-04 02:10 | 28.79982 | -106.14612 | 40010 ft | 554 kts | 119° |
| 2026-05-04 02:10 | 28.76510 | -106.06777 | 40082 ft | 553 kts | 119° |
| 2026-05-04 02:11 | 28.73035 | -105.98954 | 40109 ft | 553 kts | 119° |
| 2026-05-04 02:11 | 28.69665 | -105.91112 | 39834 ft | 556 kts | 116° |
| 2026-05-04 02:12 | 28.66704 | -105.82971 | 39836 ft | 557 kts | 113° |
| 2026-05-04 02:12 | 28.63802 | -105.74798 | 39833 ft | 557 kts | 114° |
| 2026-05-04 02:13 | 28.60827 | -105.66657 | 39826 ft | 556 kts | 115° |
| 2026-05-04 02:13 | 28.57827 | -105.58600 | 39839 ft | 557 kts | 115° |
| 2026-05-04 02:14 | 28.54785 | -105.50482 | 39838 ft | 558 kts | 115° |
| 2026-05-04 02:14 | 28.51736 | -105.42367 | 39844 ft | 558 kts | 115° |
| 2026-05-04 02:15 | 28.48692 | -105.34261 | 39860 ft | 558 kts | 115° |
| 2026-05-04 02:15 | 28.45642 | -105.26154 | 39849 ft | 558 kts | 115° |
| 2026-05-04 02:16 | 28.42599 | -105.18087 | 39879 ft | 553 kts | 115° |
| 2026-05-04 02:16 | 28.41107 | -105.14131 | 39866 ft | 538 kts | 115° |
| 2026-05-04 02:16 | 28.39651 | -105.10278 | 39864 ft | 523 kts | 115° |
| 2026-05-04 02:17 | 28.38237 | -105.06537 | 39888 ft | 508 kts | 115° |
| 2026-05-04 02:17 | 28.36863 | -105.02908 | 39890 ft | 493 kts | 116° |
| 2026-05-04 02:17 | 28.35530 | -104.99393 | 39889 ft | 478 kts | 116° |
| 2026-05-04 02:17 | 28.34234 | -104.95981 | 39889 ft | 462 kts | 116° |
| 2026-05-04 02:18 | 28.32986 | -104.92692 | 39895 ft | 447 kts | 116° |
| 2026-05-04 02:18 | 28.31782 | -104.89516 | 39897 ft | 430 kts | 115° |
| 2026-05-04 02:18 | 28.30621 | -104.86459 | 39894 ft | 412 kts | 116° |
| 2026-05-04 02:18 | 28.29496 | -104.83474 | 39864 ft | 412 kts | 115° |
| 2026-05-04 02:19 | 28.28384 | -104.80466 | 39731 ft | 416 kts | 114° |
| 2026-05-04 02:19 | 28.27261 | -104.77402 | 39444 ft | 427 kts | 115° |
| 2026-05-04 02:19 | 28.26055 | -104.74259 | 38687 ft | 456 kts | 116° |
| 2026-05-04 02:19 | 28.24732 | -104.70885 | 38086 ft | 478 kts | 116° |
| 2026-05-04 02:20 | 28.23366 | -104.67397 | 37867 ft | 489 kts | 115° |
| 2026-05-04 02:20 | 28.21987 | -104.63846 | 37919 ft | 495 kts | 115° |
| 2026-05-04 02:20 | 28.19194 | -104.56590 | 37917 ft | 509 kts | 115° |
| 2026-05-04 02:21 | 28.16332 | -104.49129 | 37919 ft | 522 kts | 115° |
| 2026-05-04 02:21 | 28.13398 | -104.41508 | 37929 ft | 536 kts | 115° |
| 2026-05-04 02:22 | 28.10358 | -104.33660 | 37945 ft | 550 kts | 115° |
| 2026-05-04 02:22 | 28.07270 | -104.25685 | 37946 ft | 563 kts | 115° |
| 2026-05-04 02:23 | 28.04114 | -104.17535 | 37955 ft | 566 kts | 115° |
| 2026-05-04 02:23 | 28.00955 | -104.09389 | 37964 ft | 564 kts | 115° |
| 2026-05-04 02:24 | 27.97797 | -104.01267 | 37969 ft | 563 kts | 115° |
| 2026-05-04 02:24 | 27.94655 | -103.93206 | 37956 ft | 563 kts | 115° |
| 2026-05-04 02:25 | 27.91493 | -103.85111 | 37972 ft | 562 kts | 115° |
| 2026-05-04 02:25 | 27.88326 | -103.77020 | 37977 ft | 563 kts | 115° |
| 2026-05-04 02:26 | 27.85157 | -103.68939 | 37974 ft | 563 kts | 115° |
| 2026-05-04 02:26 | 27.81974 | -103.60839 | 37976 ft | 563 kts | 115° |
| 2026-05-04 02:27 | 27.78790 | -103.52757 | 37975 ft | 563 kts | 115° |
| 2026-05-04 02:27 | 27.75617 | -103.44717 | 37974 ft | 564 kts | 115° |
| 2026-05-04 02:28 | 27.72417 | -103.36626 | 37971 ft | 564 kts | 115° |
| 2026-05-04 02:28 | 27.69207 | -103.28527 | 37974 ft | 564 kts | 115° |
| 2026-05-04 02:29 | 27.66026 | -103.20515 | 37977 ft | 563 kts | 115° |
| 2026-05-04 02:29 | 27.62821 | -103.12459 | 37994 ft | 563 kts | 115° |
| 2026-05-04 02:30 | 27.59605 | -103.04397 | 37998 ft | 565 kts | 115° |
| 2026-05-04 02:30 | 27.56376 | -102.96321 | 37994 ft | 565 kts | 115° |
| 2026-05-04 02:31 | 27.53163 | -102.88292 | 38019 ft | 565 kts | 115° |
| 2026-05-04 02:31 | 27.49924 | -102.80219 | 38021 ft | 565 kts | 115° |
| 2026-05-04 02:32 | 27.46678 | -102.72140 | 38031 ft | 565 kts | 115° |
| 2026-05-04 02:32 | 27.43453 | -102.64138 | 38041 ft | 564 kts | 115° |
| 2026-05-04 02:33 | 27.40205 | -102.56086 | 38063 ft | 564 kts | 115° |
| 2026-05-04 02:33 | 27.36961 | -102.48060 | 38060 ft | 563 kts | 115° |
| 2026-05-04 02:34 | 27.33732 | -102.40093 | 38078 ft | 563 kts | 115° |
| 2026-05-04 02:34 | 27.30476 | -102.32074 | 38078 ft | 564 kts | 115° |
| 2026-05-04 02:35 | 27.27206 | -102.24035 | 38072 ft | 565 kts | 115° |
| 2026-05-04 02:35 | 27.23955 | -102.16060 | 38079 ft | 565 kts | 115° |
| 2026-05-04 02:36 | 27.20678 | -102.08037 | 38070 ft | 564 kts | 115° |
| 2026-05-04 02:36 | 27.17397 | -102.00022 | 38069 ft | 564 kts | 115° |
| 2026-05-04 02:37 | 27.14141 | -101.92083 | 38068 ft | 563 kts | 115° |
| 2026-05-04 02:37 | 27.10855 | -101.84089 | 38082 ft | 564 kts | 115° |
| 2026-05-04 02:38 | 27.07568 | -101.76088 | 38058 ft | 565 kts | 115° |
| 2026-05-04 02:38 | 27.04291 | -101.68143 | 38048 ft | 565 kts | 115° |
| 2026-05-04 02:39 | 27.00978 | -101.60133 | 38045 ft | 566 kts | 115° |
| 2026-05-04 02:39 | 26.97660 | -101.52126 | 38048 ft | 566 kts | 115° |
| 2026-05-04 02:40 | 26.94378 | -101.44107 | 38049 ft | 564 kts | 112° |
| 2026-05-04 02:40 | 26.91680 | -101.35932 | 38047 ft | 564 kts | 108° |
| 2026-05-04 02:41 | 26.89148 | -101.27627 | 38063 ft | 564 kts | 108° |
| 2026-05-04 02:41 | 26.86524 | -101.19319 | 38061 ft | 565 kts | 109° |
| 2026-05-04 02:42 | 26.83830 | -101.11052 | 38062 ft | 565 kts | 109° |
| 2026-05-04 02:42 | 26.81110 | -101.02794 | 38062 ft | 565 kts | 109° |
| 2026-05-04 02:43 | 26.78403 | -100.94587 | 38070 ft | 565 kts | 109° |
| 2026-05-04 02:43 | 26.75678 | -100.86325 | 38069 ft | 565 kts | 109° |
| 2026-05-04 02:44 | 26.72952 | -100.78077 | 38072 ft | 564 kts | 109° |
| 2026-05-04 02:44 | 26.70229 | -100.69862 | 38068 ft | 563 kts | 109° |
| 2026-05-04 02:45 | 26.67524 | -100.61701 | 38073 ft | 563 kts | 109° |
| 2026-05-04 02:45 | 26.64798 | -100.53484 | 38074 ft | 563 kts | 109° |
| 2026-05-04 02:46 | 26.62060 | -100.45272 | 38075 ft | 564 kts | 109° |
| 2026-05-04 02:46 | 26.59315 | -100.37055 | 38083 ft | 564 kts | 109° |
| 2026-05-04 02:47 | 26.56560 | -100.28837 | 38077 ft | 564 kts | 109° |
| 2026-05-04 02:47 | 26.53826 | -100.20698 | 38079 ft | 564 kts | 109° |
| 2026-05-04 02:48 | 26.51490 | -100.12344 | 38080 ft | 564 kts | 103° |
| 2026-05-04 02:48 | 26.49443 | -100.03889 | 38085 ft | 562 kts | 103° |
| 2026-05-04 02:49 | 26.47344 | -99.95476 | 38076 ft | 561 kts | 104° |
| 2026-05-04 02:49 | 26.45193 | -99.87175 | 38080 ft | 561 kts | 104° |
| 2026-05-04 02:50 | 26.42994 | -99.78820 | 38077 ft | 561 kts | 104° |
| 2026-05-04 02:50 | 26.40788 | -99.70460 | 38079 ft | 562 kts | 104° |
| 2026-05-04 02:51 | 26.38579 | -99.62093 | 38077 ft | 562 kts | 104° |
| 2026-05-04 02:51 | 26.36380 | -99.53779 | 38080 ft | 562 kts | 104° |
| 2026-05-04 02:52 | 26.34161 | -99.45415 | 38082 ft | 562 kts | 104° |
| 2026-05-04 02:52 | 26.31936 | -99.37045 | 38079 ft | 563 kts | 104° |
| 2026-05-04 02:53 | 26.29707 | -99.28679 | 38078 ft | 563 kts | 104° |
| 2026-05-04 02:53 | 26.27486 | -99.20366 | 38078 ft | 563 kts | 104° |
| 2026-05-04 02:54 | 26.25248 | -99.12007 | 38075 ft | 561 kts | 104° |
| 2026-05-04 02:54 | 26.23014 | -99.03691 | 38091 ft | 561 kts | 104° |
| 2026-05-04 02:55 | 26.19645 | -98.91180 | 38087 ft | 563 kts | 104° |
| 2026-05-04 02:56 | 26.17405 | -98.82888 | 38090 ft | 563 kts | 104° |
| 2026-05-04 02:56 | 26.15143 | -98.74537 | 38095 ft | 563 kts | 104° |
| 2026-05-04 02:57 | 26.12876 | -98.66191 | 38093 ft | 564 kts | 104° |
| 2026-05-04 02:57 | 26.10611 | -98.57879 | 38096 ft | 565 kts | 104° |
| 2026-05-04 02:58 | 26.08318 | -98.49492 | 38098 ft | 566 kts | 104° |
| 2026-05-04 02:58 | 26.06024 | -98.41120 | 38119 ft | 565 kts | 104° |
| 2026-05-04 02:59 | 26.03742 | -98.32813 | 38126 ft | 565 kts | 104° |
| 2026-05-04 02:59 | 26.01446 | -98.24468 | 38063 ft | 563 kts | 104° |
| 2026-05-04 03:00 | 25.98971 | -98.16221 | 38081 ft | 561 kts | 108° |
| 2026-05-04 03:00 | 25.96177 | -98.08181 | 38102 ft | 561 kts | 109° |
| 2026-05-04 03:01 | 25.93360 | -98.00101 | 38105 ft | 561 kts | 109° |
| 2026-05-04 03:01 | 25.90592 | -97.91989 | 38108 ft | 561 kts | 109° |
| 2026-05-04 03:02 | 25.87863 | -97.83912 | 38109 ft | 562 kts | 109° |
| 2026-05-04 03:02 | 25.85109 | -97.75794 | 38108 ft | 562 kts | 109° |
| 2026-05-04 03:03 | 25.82339 | -97.67672 | 38101 ft | 562 kts | 109° |
| 2026-05-04 03:03 | 25.79564 | -97.59551 | 38099 ft | 562 kts | 109° |
| 2026-05-04 03:04 | 25.76580 | -97.51623 | 38102 ft | 562 kts | 118° |
| 2026-05-04 03:04 | 25.72748 | -97.44069 | 38121 ft | 560 kts | 120° |
| 2026-05-04 03:05 | 25.68783 | -97.36644 | 38120 ft | 559 kts | 120° |
| 2026-05-04 03:05 | 25.64789 | -97.29234 | 38117 ft | 559 kts | 120° |
| 2026-05-04 03:06 | 25.60843 | -97.21866 | 38109 ft | 559 kts | 120° |
| 2026-05-04 03:06 | 25.56881 | -97.14455 | 38127 ft | 559 kts | 120° |
| 2026-05-04 03:07 | 25.53576 | -97.08286 | 38111 ft | 559 kts | 120° |
| 2026-05-04 03:07 | 25.49599 | -97.00876 | 38129 ft | 559 kts | 120° |
| 2026-05-04 03:08 | 25.44979 | -96.92269 | 38110 ft | 558 kts | 120° |
| 2026-05-04 03:08 | 25.41684 | -96.86144 | 38113 ft | 556 kts | 120° |
| 2026-05-04 03:09 | 25.37725 | -96.78799 | 38112 ft | 556 kts | 120° |
| 2026-05-04 03:09 | 25.33753 | -96.71438 | 38112 ft | 557 kts | 121° |
| 2026-05-04 03:10 | 25.29771 | -96.64077 | 38115 ft | 557 kts | 121° |
| 2026-05-04 03:10 | 25.25793 | -96.56730 | 38107 ft | 557 kts | 121° |
| 2026-05-04 03:11 | 25.21838 | -96.49435 | 38107 ft | 557 kts | 121° |
| 2026-05-04 03:11 | 25.17851 | -96.42092 | 38095 ft | 556 kts | 121° |
| 2026-05-04 03:12 | 25.13872 | -96.34777 | 38113 ft | 554 kts | 121° |
| 2026-05-04 03:12 | 25.09929 | -96.27541 | 38110 ft | 553 kts | 121° |
| 2026-05-04 03:13 | 25.05956 | -96.20260 | 38108 ft | 553 kts | 121° |
| 2026-05-04 03:13 | 25.02006 | -96.13033 | 38111 ft | 553 kts | 121° |
| 2026-05-04 03:14 | 24.98029 | -96.05766 | 38111 ft | 553 kts | 121° |
| 2026-05-04 03:14 | 24.94045 | -95.98502 | 38110 ft | 553 kts | 121° |
| 2026-05-04 03:15 | 24.90059 | -95.91245 | 38111 ft | 553 kts | 121° |
| 2026-05-04 03:15 | 24.86106 | -95.84049 | 38103 ft | 552 kts | 121° |
| 2026-05-04 03:16 | 24.82129 | -95.76822 | 38109 ft | 551 kts | 121° |
| 2026-05-04 03:16 | 24.78152 | -95.69610 | 38115 ft | 551 kts | 122° |
| 2026-05-04 03:17 | 24.74195 | -95.62447 | 38106 ft | 552 kts | 122° |
| 2026-05-04 03:17 | 24.70201 | -95.55229 | 38108 ft | 552 kts | 122° |
| 2026-05-04 03:18 | 24.66208 | -95.48024 | 38109 ft | 552 kts | 122° |
| 2026-05-04 03:18 | 24.62212 | -95.40822 | 38106 ft | 552 kts | 122° |
| 2026-05-04 03:19 | 24.58212 | -95.33625 | 38110 ft | 552 kts | 122° |
| 2026-05-04 03:19 | 24.54232 | -95.26474 | 38113 ft | 551 kts | 122° |
| 2026-05-04 03:20 | 24.50229 | -95.19292 | 38113 ft | 551 kts | 122° |
| 2026-05-04 03:20 | 24.46221 | -95.12114 | 38108 ft | 551 kts | 122° |
| 2026-05-04 03:21 | 24.42215 | -95.04954 | 38107 ft | 551 kts | 122° |
| 2026-05-04 03:21 | 24.38220 | -94.97827 | 38111 ft | 551 kts | 123° |
| 2026-05-04 03:22 | 24.34200 | -94.90664 | 38109 ft | 550 kts | 123° |
| 2026-05-04 03:22 | 24.30183 | -94.83518 | 38080 ft | 550 kts | 123° |
| 2026-05-04 03:23 | 24.26173 | -94.76394 | 38108 ft | 547 kts | 123° |
| 2026-05-04 03:23 | 24.22208 | -94.69361 | 38107 ft | 546 kts | 124° |
| 2026-05-04 03:24 | 24.18207 | -94.62277 | 38104 ft | 546 kts | 124° |
| 2026-05-04 03:24 | 24.14535 | -94.54994 | 38115 ft | 548 kts | 115° |
| 2026-05-04 03:25 | 24.11562 | -94.47353 | 38103 ft | 549 kts | 113° |
| 2026-05-04 03:25 | 24.08685 | -94.39605 | 38108 ft | 549 kts | 113° |
| 2026-05-04 03:26 | 24.05806 | -94.31843 | 38105 ft | 549 kts | 113° |
| 2026-05-04 03:26 | 24.02931 | -94.24149 | 38105 ft | 549 kts | 113° |
| 2026-05-04 03:27 | 24.00027 | -94.16417 | 38112 ft | 549 kts | 114° |
| 2026-05-04 03:27 | 23.97126 | -94.08708 | 38112 ft | 547 kts | 114° |
| 2026-05-04 03:28 | 23.94245 | -94.01069 | 38108 ft | 547 kts | 114° |
| 2026-05-04 03:28 | 23.91343 | -93.93387 | 38109 ft | 547 kts | 114° |
| 2026-05-04 03:29 | 23.88437 | -93.85707 | 38108 ft | 547 kts | 114° |
| 2026-05-04 03:29 | 23.85524 | -93.78025 | 38115 ft | 547 kts | 114° |
| 2026-05-04 03:30 | 23.82633 | -93.70394 | 38109 ft | 547 kts | 114° |
| 2026-05-04 03:30 | 23.79724 | -93.62729 | 38112 ft | 547 kts | 114° |
| 2026-05-04 03:31 | 23.76810 | -93.55065 | 38111 ft | 547 kts | 114° |
| 2026-05-04 03:31 | 23.73889 | -93.47403 | 38092 ft | 547 kts | 114° |
| 2026-05-04 03:32 | 23.70985 | -93.39791 | 38075 ft | 546 kts | 115° |
| 2026-05-04 03:32 | 23.68064 | -93.32147 | 38103 ft | 544 kts | 115° |
| 2026-05-04 03:33 | 23.65149 | -93.24540 | 38105 ft | 543 kts | 115° |
| 2026-05-04 03:33 | 23.62249 | -93.16989 | 38101 ft | 543 kts | 115° |
| 2026-05-04 03:34 | 23.59330 | -93.09391 | 38104 ft | 543 kts | 115° |
| 2026-05-04 03:34 | 23.56406 | -93.01798 | 38102 ft | 544 kts | 115° |
| 2026-05-04 03:35 | 23.53472 | -92.94191 | 38098 ft | 544 kts | 115° |
| 2026-05-04 03:35 | 23.50533 | -92.86582 | 38097 ft | 544 kts | 115° |
| 2026-05-04 03:36 | 23.47610 | -92.79027 | 38097 ft | 544 kts | 115° |
| 2026-05-04 03:36 | 23.44655 | -92.71420 | 38097 ft | 544 kts | 115° |
| 2026-05-04 03:37 | 23.41704 | -92.63829 | 38099 ft | 544 kts | 116° |
| 2026-05-04 03:37 | 23.38768 | -92.56284 | 38098 ft | 544 kts | 115° |
| 2026-05-04 03:38 | 23.35817 | -92.48710 | 38099 ft | 543 kts | 116° |
| 2026-05-04 03:38 | 23.32864 | -92.41144 | 38099 ft | 543 kts | 116° |
| 2026-05-04 03:39 | 23.29907 | -92.33582 | 38095 ft | 543 kts | 116° |
| 2026-05-04 03:39 | 23.26946 | -92.26021 | 38090 ft | 543 kts | 116° |
| 2026-05-04 03:40 | 23.23998 | -92.18507 | 38093 ft | 544 kts | 116° |
| 2026-05-04 03:40 | 23.21025 | -92.10939 | 38090 ft | 544 kts | 116° |
| 2026-05-04 03:41 | 23.18052 | -92.03387 | 38092 ft | 544 kts | 116° |
| 2026-05-04 03:41 | 23.15073 | -91.95828 | 38092 ft | 544 kts | 116° |
| 2026-05-04 03:42 | 23.12109 | -91.88322 | 38092 ft | 544 kts | 116° |
| 2026-05-04 03:42 | 23.09117 | -91.80758 | 38075 ft | 545 kts | 116° |
| 2026-05-04 03:43 | 23.06118 | -91.73185 | 38091 ft | 545 kts | 116° |
| 2026-05-04 03:43 | 23.03118 | -91.65624 | 38089 ft | 545 kts | 116° |
| 2026-05-04 03:44 | 23.00137 | -91.58122 | 38088 ft | 545 kts | 116° |
| 2026-05-04 03:44 | 22.97129 | -91.50564 | 38090 ft | 545 kts | 116° |
| 2026-05-04 03:45 | 22.94114 | -91.43011 | 38087 ft | 545 kts | 116° |
| 2026-05-04 03:45 | 22.91094 | -91.35460 | 38086 ft | 545 kts | 116° |
| 2026-05-04 03:46 | 22.88093 | -91.27962 | 38086 ft | 545 kts | 116° |
| 2026-05-04 03:46 | 22.85069 | -91.20421 | 38083 ft | 545 kts | 116° |
| 2026-05-04 03:47 | 22.82044 | -91.12892 | 38083 ft | 545 kts | 117° |
| 2026-05-04 03:47 | 22.79011 | -91.05354 | 38083 ft | 544 kts | 117° |
| 2026-05-04 03:48 | 22.75986 | -90.97848 | 38083 ft | 543 kts | 116° |
| 2026-05-04 03:48 | 22.72978 | -90.90396 | 38084 ft | 542 kts | 117° |
| 2026-05-04 03:49 | 22.69958 | -90.82928 | 38077 ft | 542 kts | 117° |
| 2026-05-04 03:49 | 22.66933 | -90.75460 | 38085 ft | 542 kts | 117° |
| 2026-05-04 03:50 | 22.63896 | -90.67973 | 38078 ft | 543 kts | 117° |
| 2026-05-04 03:50 | 22.60855 | -90.60490 | 38078 ft | 544 kts | 117° |
| 2026-05-04 03:51 | 22.57807 | -90.52998 | 38075 ft | 543 kts | 117° |
| 2026-05-04 03:51 | 22.54776 | -90.45562 | 38072 ft | 543 kts | 117° |
| 2026-05-04 03:52 | 22.52086 | -90.37908 | 38081 ft | 549 kts | 103° |
| 2026-05-04 03:52 | 22.50727 | -90.29766 | 38074 ft | 551 kts | 101° |
| 2026-05-04 03:53 | 22.49486 | -90.21636 | 38072 ft | 551 kts | 101° |
| 2026-05-04 03:53 | 22.48245 | -90.13454 | 38072 ft | 551 kts | 101° |
| 2026-05-04 03:54 | 22.47001 | -90.05273 | 38074 ft | 551 kts | 101° |
| 2026-05-04 03:54 | 22.45763 | -89.97145 | 38075 ft | 551 kts | 101° |
| 2026-05-04 03:55 | 22.44514 | -89.88979 | 38071 ft | 548 kts | 101° |
| 2026-05-04 03:55 | 22.43271 | -89.80874 | 38074 ft | 546 kts | 101° |
| 2026-05-04 03:56 | 22.42024 | -89.72773 | 38072 ft | 546 kts | 101° |
| 2026-05-04 03:56 | 22.40781 | -89.64728 | 38068 ft | 546 kts | 101° |
| 2026-05-04 03:56 | 22.40155 | -89.60690 | 37932 ft | 543 kts | 101° |
| 2026-05-04 03:57 | 22.39531 | -89.56674 | 37692 ft | 540 kts | 101° |
| 2026-05-04 03:57 | 22.38908 | -89.52678 | 37436 ft | 540 kts | 101° |
| 2026-05-04 03:57 | 22.38280 | -89.48646 | 37207 ft | 548 kts | 101° |
| 2026-05-04 03:57 | 22.37645 | -89.44576 | 36949 ft | 549 kts | 100° |
| 2026-05-04 03:58 | 22.36377 | -89.36457 | 36452 ft | 549 kts | 100° |
| 2026-05-04 03:58 | 22.35747 | -89.32438 | 36202 ft | 549 kts | 100° |
| 2026-05-04 03:58 | 22.35109 | -89.28366 | 35962 ft | 550 kts | 100° |
| 2026-05-04 03:59 | 22.34472 | -89.24314 | 35721 ft | 550 kts | 99° |
| 2026-05-04 03:59 | 22.33827 | -89.20216 | 35483 ft | 551 kts | 100° |
| 2026-05-04 03:59 | 22.33181 | -89.16121 | 35252 ft | 553 kts | 100° |
| 2026-05-04 03:59 | 22.32534 | -89.12030 | 35032 ft | 553 kts | 99° |
| 2026-05-04 04:00 | 22.31887 | -89.07939 | 34788 ft | 552 kts | 99° |
| 2026-05-04 04:00 | 22.31239 | -89.03850 | 34549 ft | 551 kts | 99° |
| 2026-05-04 04:00 | 22.30593 | -88.99782 | 34323 ft | 549 kts | 99° |
| 2026-05-04 04:00 | 22.29948 | -88.95726 | 34100 ft | 547 kts | 99° |
| 2026-05-04 04:01 | 22.29304 | -88.91687 | 33844 ft | 545 kts | 99° |
| 2026-05-04 04:01 | 22.28670 | -88.87713 | 33546 ft | 542 kts | 99° |
| 2026-05-04 04:01 | 22.28033 | -88.83727 | 33072 ft | 535 kts | 99° |
| 2026-05-04 04:01 | 22.27401 | -88.79784 | 32514 ft | 531 kts | 99° |
| 2026-05-04 04:02 | 22.26775 | -88.75875 | 31976 ft | 527 kts | 99° |
| 2026-05-04 04:02 | 22.26149 | -88.71981 | 31407 ft | 524 kts | 99° |
| 2026-05-04 04:02 | 22.25528 | -88.68124 | 30860 ft | 520 kts | 99° |
| 2026-05-04 04:02 | 22.24910 | -88.64287 | 30323 ft | 517 kts | 99° |
| 2026-05-04 04:03 | 22.24294 | -88.60469 | 29727 ft | 514 kts | 99° |
| 2026-05-04 04:03 | 22.23683 | -88.56690 | 29171 ft | 509 kts | 98° |
| 2026-05-04 04:03 | 22.23076 | -88.52941 | 28633 ft | 505 kts | 98° |
| 2026-05-04 04:03 | 22.22480 | -88.49267 | 28111 ft | 500 kts | 98° |
| 2026-05-04 04:04 | 22.21883 | -88.45591 | 27578 ft | 496 kts | 98° |
| 2026-05-04 04:04 | 22.21290 | -88.41944 | 27054 ft | 491 kts | 98° |
| 2026-05-04 04:04 | 22.20701 | -88.38325 | 26527 ft | 487 kts | 98° |
| 2026-05-04 04:04 | 22.20115 | -88.34736 | 25984 ft | 484 kts | 98° |
| 2026-05-04 04:05 | 22.19533 | -88.31174 | 25469 ft | 480 kts | 97° |
| 2026-05-04 04:05 | 22.18955 | -88.27641 | 24934 ft | 476 kts | 97° |
| 2026-05-04 04:05 | 22.18381 | -88.24138 | 24395 ft | 473 kts | 97° |
| 2026-05-04 04:05 | 22.17809 | -88.20648 | 23889 ft | 470 kts | 97° |
| 2026-05-04 04:06 | 22.17250 | -88.17235 | 23304 ft | 467 kts | 97° |
| 2026-05-04 04:06 | 22.16687 | -88.13802 | 22738 ft | 461 kts | 97° |
| 2026-05-04 04:06 | 22.16129 | -88.10411 | 22207 ft | 456 kts | 97° |
| 2026-05-04 04:06 | 22.15579 | -88.07066 | 21677 ft | 451 kts | 98° |
| 2026-05-04 04:07 | 22.15032 | -88.03752 | 21155 ft | 446 kts | 98° |
| 2026-05-04 04:07 | 22.14495 | -88.00504 | 20956 ft | 432 kts | 98° |
| 2026-05-04 04:07 | 22.13948 | -87.97342 | 20483 ft | 428 kts | 101° |
| 2026-05-04 04:07 | 22.12878 | -87.94378 | 20153 ft | 421 kts | 122° |
| 2026-05-04 04:08 | 22.11020 | -87.91980 | 20055 ft | 416 kts | 138° |
| 2026-05-04 04:08 | 22.08908 | -87.89889 | 19736 ft | 408 kts | 140° |
| 2026-05-04 04:08 | 22.06831 | -87.87887 | 19253 ft | 406 kts | 140° |
| 2026-05-04 04:08 | 22.04740 | -87.85858 | 18800 ft | 402 kts | 140° |
| 2026-05-04 04:09 | 22.02682 | -87.83845 | 18363 ft | 397 kts | 140° |
| 2026-05-04 04:09 | 22.00656 | -87.81855 | 18194 ft | 388 kts | 140° |
| 2026-05-04 04:09 | 21.98664 | -87.79896 | 18268 ft | 390 kts | 140° |
| 2026-05-04 04:09 | 21.96695 | -87.77955 | 18195 ft | 377 kts | 140° |
| 2026-05-04 04:10 | 21.94792 | -87.76077 | 17989 ft | 365 kts | 140° |
| 2026-05-04 04:10 | 21.92920 | -87.74233 | 17316 ft | 368 kts | 140° |
| 2026-05-04 04:10 | 21.91002 | -87.72347 | 16461 ft | 377 kts | 139° |
| 2026-05-04 04:10 | 21.89060 | -87.70436 | 15784 ft | 380 kts | 139° |
| 2026-05-04 04:11 | 21.87107 | -87.68517 | 15206 ft | 379 kts | 139° |
| 2026-05-04 04:11 | 21.85176 | -87.66613 | 14712 ft | 375 kts | 139° |
| 2026-05-04 04:11 | 21.83284 | -87.64747 | 14230 ft | 372 kts | 139° |
| 2026-05-04 04:11 | 21.81393 | -87.62885 | 13661 ft | 362 kts | 138° |
| 2026-05-04 04:12 | 21.79551 | -87.61070 | 12713 ft | 356 kts | 138° |
| 2026-05-04 04:12 | 21.77771 | -87.59319 | 12406 ft | 336 kts | 138° |
| 2026-05-04 04:12 | 21.76104 | -87.57679 | 12170 ft | 311 kts | 138° |
| 2026-05-04 04:12 | 21.74543 | -87.56145 | 11769 ft | 302 kts | 138° |
| 2026-05-04 04:13 | 21.72992 | -87.54622 | 11506 ft | 301 kts | 138° |
| 2026-05-04 04:13 | 21.71451 | -87.53109 | 11177 ft | 299 kts | 138° |
| 2026-05-04 04:13 | 21.69938 | -87.51623 | 10844 ft | 297 kts | 138° |
| 2026-05-04 04:13 | 21.68414 | -87.50128 | 10517 ft | 295 kts | 138° |
| 2026-05-04 04:14 | 21.66904 | -87.48646 | 10189 ft | 294 kts | 138° |
| 2026-05-04 04:14 | 21.65391 | -87.47162 | 9760 ft | 294 kts | 138° |
| 2026-05-04 04:14 | 21.63882 | -87.45684 | 9317 ft | 293 kts | 138° |
| 2026-05-04 04:14 | 21.62328 | -87.44298 | 8975 ft | 288 kts | 142° |
| 2026-05-04 04:15 | 21.60760 | -87.42987 | 8662 ft | 284 kts | 142° |
| 2026-05-04 04:15 | 21.59205 | -87.41682 | 8328 ft | 283 kts | 142° |
| 2026-05-04 04:15 | 21.57663 | -87.40378 | 7996 ft | 282 kts | 142° |
| 2026-05-04 04:15 | 21.56102 | -87.39050 | 7697 ft | 290 kts | 142° |
| 2026-05-04 04:16 | 21.54537 | -87.37714 | 7373 ft | 291 kts | 142° |
| 2026-05-04 04:16 | 21.52983 | -87.36386 | 7187 ft | 279 kts | 142° |
| 2026-05-04 04:16 | 21.51494 | -87.35113 | 7046 ft | 268 kts | 141° |
| 2026-05-04 04:16 | 21.50056 | -87.33883 | 6796 ft | 261 kts | 142° |
| 2026-05-04 04:17 | 21.48642 | -87.32674 | 6489 ft | 259 kts | 141° |
| 2026-05-04 04:17 | 21.47245 | -87.31480 | 6081 ft | 254 kts | 141° |
| 2026-05-04 04:17 | 21.45884 | -87.30317 | 5785 ft | 248 kts | 141° |
| 2026-05-04 04:17 | 21.44535 | -87.29164 | 5535 ft | 247 kts | 141° |
| 2026-05-04 04:18 | 21.43196 | -87.28019 | 5262 ft | 243 kts | 141° |
| 2026-05-04 04:18 | 21.41896 | -87.26909 | 5002 ft | 243 kts | 141° |
| 2026-05-04 04:18 | 21.40554 | -87.25762 | 4735 ft | 243 kts | 141° |
| 2026-05-04 04:18 | 21.39265 | -87.24662 | 4455 ft | 240 kts | 141° |
| 2026-05-04 04:19 | 21.37934 | -87.23608 | 4110 ft | 235 kts | 148° |
| 2026-05-04 04:19 | 21.36482 | -87.22762 | 3999 ft | 240 kts | 153° |
| 2026-05-04 04:19 | 21.34992 | -87.21956 | 3998 ft | 240 kts | 153° |
| 2026-05-04 04:19 | 21.33508 | -87.21157 | 3997 ft | 239 kts | 153° |
| 2026-05-04 04:20 | 21.32025 | -87.20355 | 3991 ft | 239 kts | 153° |
| 2026-05-04 04:20 | 21.30538 | -87.19545 | 3996 ft | 239 kts | 152° |
| 2026-05-04 04:20 | 21.29200 | -87.18497 | 3960 ft | 239 kts | 135° |
| 2026-05-04 04:20 | 21.28051 | -87.17218 | 3833 ft | 237 kts | 132° |
| 2026-05-04 04:21 | 21.26954 | -87.15931 | 3717 ft | 237 kts | 132° |
| 2026-05-04 04:21 | 21.25838 | -87.14625 | 3612 ft | 237 kts | 132° |
| 2026-05-04 04:21 | 21.24724 | -87.13328 | 3495 ft | 236 kts | 132° |
| 2026-05-04 04:21 | 21.23614 | -87.12041 | 3407 ft | 236 kts | 132° |
| 2026-05-04 04:22 | 21.22500 | -87.10753 | 3285 ft | 235 kts | 132° |
| 2026-05-04 04:22 | 21.21389 | -87.09470 | 3164 ft | 234 kts | 132° |
| 2026-05-04 04:22 | 21.20286 | -87.08197 | 3073 ft | 232 kts | 132° |
| 2026-05-04 04:22 | 21.19214 | -87.06961 | 2980 ft | 221 kts | 132° |
| 2026-05-04 04:23 | 21.18207 | -87.05801 | 2870 ft | 209 kts | 132° |
| 2026-05-04 04:23 | 21.17257 | -87.04707 | 2808 ft | 194 kts | 132° |
| 2026-05-04 04:23 | 21.16373 | -87.03692 | 2724 ft | 179 kts | 132° |
| 2026-05-04 04:23 | 21.15548 | -87.02741 | 2640 ft | 167 kts | 132° |
| 2026-05-04 04:24 | 21.14797 | -87.01877 | 2537 ft | 150 kts | 132° |
| 2026-05-04 04:24 | 21.14116 | -87.01095 | 2477 ft | 140 kts | 131° |
| 2026-05-04 04:24 | 21.13460 | -87.00340 | 2413 ft | 136 kts | 131° |
| 2026-05-04 04:24 | 21.12821 | -86.99603 | 2350 ft | 133 kts | 131° |
| 2026-05-04 04:25 | 21.12205 | -86.98865 | 2298 ft | 133 kts | 127° |
| 2026-05-04 04:25 | 21.11675 | -86.98058 | 2242 ft | 133 kts | 123° |
| 2026-05-04 04:25 | 21.11163 | -86.97237 | 2194 ft | 132 kts | 122° |
| 2026-05-04 04:25 | 21.10647 | -86.96408 | 2016 ft | 134 kts | 122° |
| 2026-05-04 04:26 | 21.10149 | -86.95594 | 1801 ft | 130 kts | 122° |
| 2026-05-04 04:26 | 21.09643 | -86.94792 | 1652 ft | 131 kts | 122° |
| 2026-05-04 04:26 | 21.09142 | -86.93977 | 1417 ft | 130 kts | 121° |
| 2026-05-04 04:26 | 21.08645 | -86.93171 | 1224 ft | 130 kts | 122° |
| 2026-05-04 04:27 | 21.08142 | -86.92371 | 1048 ft | 129 kts | 122° |
| 2026-05-04 04:27 | 21.07642 | -86.91576 | 855 ft | 128 kts | 122° |
| 2026-05-04 04:27 | 21.07149 | -86.90791 | 655 ft | 128 kts | 123° |
| 2026-05-04 04:27 | 21.06648 | -86.89999 | 476 ft | 131 kts | 123° |
| 2026-05-04 04:28 | 21.06142 | -86.89191 | 309 ft | 131 kts | 123° |
| 2026-05-04 04:28 | 21.05629 | -86.88378 | 140 ft | 134 kts | 123° |
| 2026-05-04 04:28 | 21.05281 | -86.87826 | 49 ft | 129 kts | 123° |
| 2026-05-04 04:28 | 21.04711 | -86.86916 | 38 ft | 74 kts | 123° |
| 2026-05-04 04:29 | 21.04508 | -86.86594 | 38 ft | 36 kts | 123° |
| 2026-05-04 04:29 | 21.04376 | -86.86441 | 36 ft | 20 kts | 144° |
| 2026-05-04 04:29 | 21.04322 | -86.86404 | 36 ft | 0 kts | 148° |
| 2026-05-04 04:29 | 21.04303 | -86.86391 | 37 ft | 11 kts | 148° |
| 2026-05-04 04:30 | 21.04232 | -86.86352 | 42 ft | 11 kts | 154° |
| 2026-05-04 04:30 | 21.04218 | -86.86344 | 43 ft | 0 kts | 154° |
| 2026-05-04 04:30 | 21.04184 | -86.86327 | 45 ft | 15 kts | 156° |
| 2026-05-04 04:30 | 21.04113 | -86.86283 | 46 ft | 10 kts | 141° |
| 2026-05-04 04:31 | 21.04089 | -86.86253 | 48 ft | 0 kts | 128° |
| 2026-05-04 04:31 | 21.04037 | -86.86228 | 48 ft | 15 kts | 181° |
| 2026-05-04 04:31 | 21.03956 | -86.86275 | 51 ft | 12 kts | 213° |
| 2026-05-04 04:32 | 21.03907 | -86.86309 | 55 ft | 14 kts | 213° |
| 2026-05-04 04:32 | 21.03818 | -86.86372 | 49 ft | 18 kts | 213° |
| 2026-05-04 04:32 | 21.03686 | -86.86463 | 42 ft | 27 kts | 213° |
| 2026-05-04 04:32 | 21.03567 | -86.86550 | 35 ft | 5 kts | 217° |
| 2026-05-04 04:33 | 21.03561 | -86.86569 | 35 ft | 2 kts | 266° |
| 2026-05-04 04:33 | 21.03571 | -86.86594 | 35 ft | 5 kts | 296° |
| 2026-05-04 04:33 | 21.03581 | -86.86626 | 35 ft | 0 kts | 280° |
| 2026-05-04 04:34 | 21.03580 | -86.86649 | 35 ft | 9 kts | 270° |
| 2026-05-04 04:34 | 21.03597 | -86.86695 | 34 ft | 5 kts | 301° |
| 2026-05-04 04:34 | 21.03613 | -86.86722 | 35 ft | 3 kts | 303° |
| 2026-05-04 04:34 | 21.03622 | -86.86736 | 35 ft | 2 kts | 303° |
| 2026-05-04 04:35 | 21.03629 | -86.86748 | 35 ft | 0 kts | 303° |
| 2026-05-04 04:35 | 21.03630 | -86.86750 | 35 ft | 1 kts | 303° |
| 2026-05-04 04:35 | 21.03633 | -86.86754 | 35 ft | 0 kts | 303° |